NOZ7JP LIRP-ENGM
Flight info
| Callsign | NOZ7JP |
|---|---|
| Flight time | N/A |
| Altitude | 36000 |
| Route | BEROK L153 OSBUL/N0442F340 DCT TAGIP/N0445F360 DCT BRENO DCT KONIN DCT EXITI DCT BAGOS DCT VADIN DCT SABAK L997 LUNIP |
| Aircraft | B738/M-SADE3GHIJ1LRWXY/LB1 |
Departure
| Time | N/A |
|---|---|
| Airport | Pisa International Airport (LIRP) |
Arrival
| Time | 2026-04-30 13:24 |
|---|---|
| Airport | Oslo-Gardermoen International Airport (ENGM) |
| Time | Latitude | Longitude | Altitude | Speed | Heading |
|---|---|---|---|---|---|
| 2026-04-30 11:07 | 46.00345 | 10.73329 | 36282 ft | 414 kts | 22° |
| 2026-04-30 11:07 | 46.02959 | 10.75064 | 36287 ft | 413 kts | 22° |
| 2026-04-30 11:08 | 46.08184 | 10.78507 | 36300 ft | 413 kts | 22° |
| 2026-04-30 11:08 | 46.13422 | 10.81921 | 36295 ft | 413 kts | 22° |
| 2026-04-30 11:09 | 46.18681 | 10.85336 | 36290 ft | 416 kts | 22° |
| 2026-04-30 11:09 | 46.23931 | 10.88748 | 36284 ft | 418 kts | 22° |
| 2026-04-30 11:10 | 46.29239 | 10.92206 | 36292 ft | 419 kts | 22° |
| 2026-04-30 11:10 | 46.34564 | 10.95683 | 36300 ft | 421 kts | 22° |
| 2026-04-30 11:11 | 46.39914 | 10.99185 | 36283 ft | 422 kts | 22° |
| 2026-04-30 11:11 | 46.45228 | 11.02671 | 36234 ft | 422 kts | 23° |
| 2026-04-30 11:12 | 46.50568 | 11.06181 | 36255 ft | 421 kts | 23° |
| 2026-04-30 11:12 | 46.55905 | 11.09697 | 36258 ft | 421 kts | 23° |
| 2026-04-30 11:13 | 46.61233 | 11.13214 | 36255 ft | 421 kts | 23° |
| 2026-04-30 11:13 | 46.66521 | 11.16712 | 36258 ft | 419 kts | 23° |
| 2026-04-30 11:14 | 46.71824 | 11.20229 | 36254 ft | 418 kts | 23° |
| 2026-04-30 11:14 | 46.77104 | 11.23738 | 36258 ft | 417 kts | 23° |
| 2026-04-30 11:15 | 46.82370 | 11.27240 | 36265 ft | 415 kts | 23° |
| 2026-04-30 11:15 | 46.87578 | 11.30720 | 36256 ft | 414 kts | 24° |
| 2026-04-30 11:16 | 46.92803 | 11.34215 | 36266 ft | 412 kts | 24° |
| 2026-04-30 11:16 | 46.98166 | 11.37088 | 36262 ft | 410 kts | 12° |
| 2026-04-30 11:17 | 47.03839 | 11.37769 | 36300 ft | 410 kts | 1° |
| 2026-04-30 11:17 | 47.09502 | 11.37656 | 36286 ft | 409 kts | 0° |
| 2026-04-30 11:18 | 47.15202 | 11.37547 | 36273 ft | 410 kts | 1° |
| 2026-04-30 11:18 | 47.23759 | 11.37439 | 36262 ft | 410 kts | 1° |
| 2026-04-30 11:19 | 47.29470 | 11.37380 | 36266 ft | 410 kts | 1° |
| 2026-04-30 11:19 | 47.35139 | 11.37323 | 36270 ft | 410 kts | 1° |
| 2026-04-30 11:20 | 47.40846 | 11.37264 | 36275 ft | 409 kts | 1° |
| 2026-04-30 11:20 | 47.46542 | 11.37205 | 36294 ft | 410 kts | 2° |
| 2026-04-30 11:21 | 47.52247 | 11.37146 | 36296 ft | 410 kts | 2° |
| 2026-04-30 11:21 | 47.57910 | 11.37088 | 36297 ft | 409 kts | 2° |
| 2026-04-30 11:22 | 47.63594 | 11.37029 | 36300 ft | 407 kts | 2° |
| 2026-04-30 11:22 | 47.69260 | 11.36970 | 36327 ft | 407 kts | 3° |
| 2026-04-30 11:23 | 47.74919 | 11.36911 | 36331 ft | 406 kts | 3° |
| 2026-04-30 11:24 | 47.83359 | 11.36823 | 36336 ft | 406 kts | 2° |
| 2026-04-30 11:24 | 47.89005 | 11.36822 | 36342 ft | 405 kts | 4° |
| 2026-04-30 11:25 | 47.97453 | 11.37036 | 36350 ft | 405 kts | 4° |
| 2026-04-30 11:26 | 48.08690 | 11.37310 | 36350 ft | 405 kts | 4° |
| 2026-04-30 11:26 | 48.14327 | 11.37437 | 36349 ft | 405 kts | 5° |
| 2026-04-30 11:27 | 48.19966 | 11.37563 | 36347 ft | 405 kts | 5° |
| 2026-04-30 11:27 | 48.25600 | 11.37689 | 36350 ft | 405 kts | 5° |
| 2026-04-30 11:28 | 48.34018 | 11.37878 | 36354 ft | 405 kts | 5° |
| 2026-04-30 11:29 | 48.39653 | 11.38005 | 36367 ft | 405 kts | 5° |
| 2026-04-30 11:29 | 48.48108 | 11.38196 | 36364 ft | 405 kts | 5° |
| 2026-04-30 11:30 | 48.56522 | 11.38387 | 36388 ft | 405 kts | 5° |
| 2026-04-30 11:31 | 48.62148 | 11.38515 | 36394 ft | 404 kts | 5° |
| 2026-04-30 11:31 | 48.67776 | 11.38643 | 36403 ft | 404 kts | 5° |
| 2026-04-30 11:32 | 48.73399 | 11.38771 | 36377 ft | 404 kts | 5° |
| 2026-04-30 11:32 | 48.78968 | 11.38898 | 36369 ft | 403 kts | 5° |
| 2026-04-30 11:33 | 48.87369 | 11.39092 | 36382 ft | 403 kts | 5° |
| 2026-04-30 11:33 | 48.92973 | 11.39221 | 36381 ft | 403 kts | 5° |
| 2026-04-30 11:34 | 48.98545 | 11.39350 | 36383 ft | 403 kts | 5° |
| 2026-04-30 11:34 | 49.04148 | 11.39479 | 36392 ft | 403 kts | 5° |
| 2026-04-30 11:35 | 49.09754 | 11.39609 | 36398 ft | 403 kts | 5° |
| 2026-04-30 11:35 | 49.15366 | 11.39739 | 36408 ft | 403 kts | 5° |
| 2026-04-30 11:36 | 49.20976 | 11.39870 | 36409 ft | 403 kts | 5° |
| 2026-04-30 11:36 | 49.26540 | 11.39999 | 36402 ft | 402 kts | 5° |
| 2026-04-30 11:37 | 49.32139 | 11.40130 | 36408 ft | 402 kts | 5° |
| 2026-04-30 11:37 | 49.37726 | 11.40261 | 36408 ft | 401 kts | 5° |
| 2026-04-30 11:38 | 49.43302 | 11.40392 | 36414 ft | 400 kts | 5° |
| 2026-04-30 11:38 | 49.48826 | 11.40523 | 36404 ft | 399 kts | 5° |
| 2026-04-30 11:39 | 49.54375 | 11.40654 | 36413 ft | 399 kts | 5° |
| 2026-04-30 11:39 | 49.59919 | 11.40689 | 36424 ft | 399 kts | 4° |
| 2026-04-30 11:40 | 49.65472 | 11.40531 | 36412 ft | 398 kts | 3° |
| 2026-04-30 11:40 | 49.70975 | 11.40361 | 36425 ft | 398 kts | 3° |
| 2026-04-30 11:41 | 49.76521 | 11.40208 | 36421 ft | 399 kts | 3° |
| 2026-04-30 11:41 | 49.82074 | 11.40066 | 36425 ft | 399 kts | 3° |
| 2026-04-30 11:42 | 49.87629 | 11.39928 | 36397 ft | 399 kts | 3° |
| 2026-04-30 11:42 | 49.93187 | 11.39790 | 36419 ft | 400 kts | 3° |
| 2026-04-30 11:43 | 49.98716 | 11.39653 | 36436 ft | 400 kts | 3° |
| 2026-04-30 11:43 | 50.04294 | 11.39514 | 36435 ft | 402 kts | 3° |
| 2026-04-30 11:44 | 50.09892 | 11.39374 | 36432 ft | 403 kts | 3° |
| 2026-04-30 11:44 | 50.15462 | 11.39234 | 36439 ft | 403 kts | 3° |
| 2026-04-30 11:45 | 50.21068 | 11.39094 | 36437 ft | 403 kts | 3° |
| 2026-04-30 11:45 | 50.26677 | 11.38952 | 36440 ft | 403 kts | 3° |
| 2026-04-30 11:46 | 50.32283 | 11.38810 | 36442 ft | 402 kts | 3° |
| 2026-04-30 11:46 | 50.37869 | 11.38668 | 36438 ft | 401 kts | 3° |
| 2026-04-30 11:47 | 50.43406 | 11.38528 | 36444 ft | 400 kts | 3° |
| 2026-04-30 11:47 | 50.48959 | 11.38387 | 36449 ft | 399 kts | 3° |
| 2026-04-30 11:48 | 50.54503 | 11.38246 | 36438 ft | 398 kts | 3° |
| 2026-04-30 11:48 | 50.60033 | 11.38105 | 36453 ft | 397 kts | 3° |
| 2026-04-30 11:49 | 50.65558 | 11.37964 | 36445 ft | 397 kts | 3° |
| 2026-04-30 11:49 | 50.71039 | 11.37823 | 36456 ft | 397 kts | 3° |
| 2026-04-30 11:50 | 50.76561 | 11.37682 | 36444 ft | 397 kts | 3° |
| 2026-04-30 11:50 | 50.82084 | 11.37539 | 36459 ft | 397 kts | 3° |
| 2026-04-30 11:51 | 50.87602 | 11.37397 | 36455 ft | 397 kts | 3° |
| 2026-04-30 11:51 | 50.93097 | 11.37255 | 36467 ft | 398 kts | 3° |
| 2026-04-30 11:52 | 50.98640 | 11.37112 | 36460 ft | 398 kts | 3° |
| 2026-04-30 11:52 | 51.04192 | 11.36967 | 36458 ft | 399 kts | 2° |
| 2026-04-30 11:53 | 51.09753 | 11.36822 | 36465 ft | 400 kts | 2° |
| 2026-04-30 11:53 | 51.15290 | 11.36678 | 36465 ft | 401 kts | 2° |
| 2026-04-30 11:54 | 51.20883 | 11.36531 | 36473 ft | 402 kts | 2° |
| 2026-04-30 11:54 | 51.26486 | 11.36384 | 36474 ft | 403 kts | 2° |
| 2026-04-30 11:55 | 51.32103 | 11.36236 | 36479 ft | 404 kts | 2° |
| 2026-04-30 11:55 | 51.37686 | 11.36088 | 36477 ft | 404 kts | 2° |
| 2026-04-30 11:56 | 51.43303 | 11.35939 | 36476 ft | 404 kts | 2° |
| 2026-04-30 11:56 | 51.48917 | 11.35790 | 36481 ft | 403 kts | 2° |
| 2026-04-30 11:57 | 51.54521 | 11.35641 | 36493 ft | 403 kts | 2° |
| 2026-04-30 11:57 | 51.60088 | 11.35493 | 36493 ft | 402 kts | 2° |
| 2026-04-30 11:58 | 51.65686 | 11.35343 | 36500 ft | 402 kts | 2° |
| 2026-04-30 11:58 | 51.71275 | 11.35194 | 36500 ft | 402 kts | 2° |
| 2026-04-30 11:59 | 51.76863 | 11.35044 | 36505 ft | 401 kts | 2° |
| 2026-04-30 11:59 | 51.82405 | 11.34895 | 36517 ft | 401 kts | 2° |
| 2026-04-30 12:00 | 51.87990 | 11.34744 | 36516 ft | 401 kts | 2° |
| 2026-04-30 12:00 | 51.93562 | 11.34593 | 36511 ft | 401 kts | 2° |
| 2026-04-30 12:01 | 51.99140 | 11.34442 | 36504 ft | 401 kts | 2° |
| 2026-04-30 12:01 | 52.04681 | 11.34292 | 36483 ft | 401 kts | 2° |
| 2026-04-30 12:02 | 52.10254 | 11.34140 | 36481 ft | 401 kts | 2° |
| 2026-04-30 12:02 | 52.15834 | 11.33988 | 36488 ft | 401 kts | 2° |
| 2026-04-30 12:03 | 52.24230 | 11.33758 | 36489 ft | 403 kts | 2° |
| 2026-04-30 12:04 | 52.29856 | 11.33604 | 36492 ft | 405 kts | 2° |
| 2026-04-30 12:04 | 52.35459 | 11.33449 | 36492 ft | 406 kts | 2° |
| 2026-04-30 12:05 | 52.41114 | 11.33293 | 36495 ft | 407 kts | 2° |
| 2026-04-30 12:05 | 52.46784 | 11.33135 | 36485 ft | 408 kts | 2° |
| 2026-04-30 12:06 | 52.52455 | 11.32978 | 36489 ft | 408 kts | 2° |
| 2026-04-30 12:06 | 52.58089 | 11.32820 | 36491 ft | 408 kts | 2° |
| 2026-04-30 12:07 | 52.63757 | 11.32662 | 36487 ft | 407 kts | 2° |
| 2026-04-30 12:07 | 52.69422 | 11.32503 | 36483 ft | 407 kts | 2° |
| 2026-04-30 12:08 | 52.75083 | 11.32344 | 36484 ft | 406 kts | 2° |
| 2026-04-30 12:08 | 52.80687 | 11.32187 | 36490 ft | 405 kts | 2° |
| 2026-04-30 12:09 | 52.86325 | 11.32028 | 36483 ft | 405 kts | 2° |
| 2026-04-30 12:09 | 52.91954 | 11.31869 | 36489 ft | 404 kts | 2° |
| 2026-04-30 12:10 | 52.97583 | 11.31709 | 36486 ft | 404 kts | 2° |
| 2026-04-30 12:10 | 53.03172 | 11.31550 | 36484 ft | 404 kts | 2° |
| 2026-04-30 12:11 | 53.08792 | 11.31390 | 36488 ft | 404 kts | 2° |
| 2026-04-30 12:11 | 53.14421 | 11.31229 | 36489 ft | 404 kts | 1° |
| 2026-04-30 12:12 | 53.20054 | 11.31068 | 36490 ft | 405 kts | 1° |
| 2026-04-30 12:12 | 53.25686 | 11.30908 | 36485 ft | 405 kts | 1° |
| 2026-04-30 12:13 | 53.31292 | 11.30745 | 36495 ft | 406 kts | 1° |
| 2026-04-30 12:13 | 53.36947 | 11.30582 | 36494 ft | 407 kts | 1° |
| 2026-04-30 12:14 | 53.42622 | 11.30417 | 36485 ft | 408 kts | 1° |
| 2026-04-30 12:14 | 53.48312 | 11.30253 | 36485 ft | 410 kts | 1° |
| 2026-04-30 12:15 | 53.53977 | 11.30088 | 36482 ft | 410 kts | 1° |
| 2026-04-30 12:15 | 53.59697 | 11.29920 | 36485 ft | 411 kts | 1° |
| 2026-04-30 12:16 | 53.65423 | 11.29753 | 36496 ft | 412 kts | 1° |
| 2026-04-30 12:16 | 53.71153 | 11.29584 | 36495 ft | 412 kts | 1° |
| 2026-04-30 12:17 | 53.79712 | 11.29332 | 36494 ft | 412 kts | 1° |
| 2026-04-30 12:17 | 53.85431 | 11.29163 | 36498 ft | 411 kts | 1° |
| 2026-04-30 12:18 | 53.91149 | 11.28994 | 36488 ft | 411 kts | 1° |
| 2026-04-30 12:18 | 53.96860 | 11.28824 | 36487 ft | 410 kts | 1° |
| 2026-04-30 12:19 | 54.02522 | 11.28655 | 36490 ft | 409 kts | 1° |
| 2026-04-30 12:19 | 54.08210 | 11.28485 | 36489 ft | 409 kts | 1° |
| 2026-04-30 12:20 | 54.13897 | 11.28315 | 36489 ft | 409 kts | 1° |
| 2026-04-30 12:20 | 54.19583 | 11.28144 | 36498 ft | 408 kts | 1° |
| 2026-04-30 12:21 | 54.25228 | 11.27975 | 36496 ft | 409 kts | 0° |
| 2026-04-30 12:21 | 54.30916 | 11.27803 | 36493 ft | 409 kts | 0° |
| 2026-04-30 12:22 | 54.36602 | 11.27631 | 36496 ft | 409 kts | 0° |
| 2026-04-30 12:22 | 54.42290 | 11.27464 | 36487 ft | 409 kts | 0° |
| 2026-04-30 12:23 | 54.47949 | 11.27287 | 36491 ft | 410 kts | 0° |
| 2026-04-30 12:23 | 54.53658 | 11.27111 | 36500 ft | 411 kts | 0° |
| 2026-04-30 12:24 | 54.59382 | 11.27106 | 36495 ft | 411 kts | 4° |
| 2026-04-30 12:24 | 54.65094 | 11.27861 | 36494 ft | 412 kts | 6° |
| 2026-04-30 12:25 | 54.70773 | 11.28757 | 36497 ft | 413 kts | 6° |
| 2026-04-30 12:25 | 54.76503 | 11.29612 | 36491 ft | 414 kts | 5° |
| 2026-04-30 12:26 | 54.82242 | 11.30424 | 36492 ft | 414 kts | 5° |
| 2026-04-30 12:26 | 54.87983 | 11.31221 | 36492 ft | 414 kts | 5° |
| 2026-04-30 12:27 | 54.93680 | 11.32011 | 36487 ft | 413 kts | 5° |
| 2026-04-30 12:27 | 54.99414 | 11.32808 | 36486 ft | 413 kts | 5° |
| 2026-04-30 12:28 | 55.05132 | 11.33606 | 36474 ft | 412 kts | 5° |
| 2026-04-30 12:28 | 55.10844 | 11.34405 | 36482 ft | 412 kts | 5° |
| 2026-04-30 12:29 | 55.16511 | 11.35201 | 36485 ft | 411 kts | 5° |
| 2026-04-30 12:29 | 55.22208 | 11.36003 | 36483 ft | 410 kts | 5° |
| 2026-04-30 12:30 | 55.27898 | 11.36806 | 36482 ft | 410 kts | 5° |
| 2026-04-30 12:30 | 55.33585 | 11.37612 | 36483 ft | 410 kts | 5° |
| 2026-04-30 12:31 | 55.39273 | 11.38419 | 36464 ft | 410 kts | 5° |
| 2026-04-30 12:31 | 55.44920 | 11.39224 | 36481 ft | 410 kts | 5° |
| 2026-04-30 12:32 | 55.50612 | 11.40037 | 36483 ft | 410 kts | 5° |
| 2026-04-30 12:32 | 55.56307 | 11.40852 | 36482 ft | 411 kts | 5° |
| 2026-04-30 12:33 | 55.61970 | 11.41666 | 36476 ft | 411 kts | 5° |
| 2026-04-30 12:33 | 55.67673 | 11.42488 | 36480 ft | 411 kts | 5° |
| 2026-04-30 12:34 | 55.73385 | 11.43313 | 36481 ft | 412 kts | 5° |
| 2026-04-30 12:34 | 55.79097 | 11.44141 | 36473 ft | 412 kts | 5° |
| 2026-04-30 12:35 | 55.84780 | 11.44967 | 36480 ft | 412 kts | 5° |
| 2026-04-30 12:35 | 55.90500 | 11.45801 | 36472 ft | 413 kts | 5° |
| 2026-04-30 12:36 | 55.96223 | 11.46638 | 36461 ft | 413 kts | 5° |
| 2026-04-30 12:36 | 56.01953 | 11.47478 | 36476 ft | 413 kts | 5° |
| 2026-04-30 12:37 | 56.07680 | 11.48320 | 36453 ft | 413 kts | 4° |
| 2026-04-30 12:37 | 56.13375 | 11.49161 | 36475 ft | 414 kts | 4° |
| 2026-04-30 12:38 | 56.19114 | 11.50010 | 36474 ft | 414 kts | 4° |
| 2026-04-30 12:38 | 56.24862 | 11.50863 | 36469 ft | 414 kts | 4° |
| 2026-04-30 12:39 | 56.30611 | 11.51719 | 36460 ft | 415 kts | 4° |
| 2026-04-30 12:39 | 56.36328 | 11.52572 | 36467 ft | 415 kts | 4° |
| 2026-04-30 12:40 | 56.42091 | 11.53435 | 36466 ft | 416 kts | 4° |
| 2026-04-30 12:40 | 56.47860 | 11.54302 | 36465 ft | 417 kts | 4° |
| 2026-04-30 12:41 | 56.53641 | 11.55173 | 36462 ft | 417 kts | 4° |
| 2026-04-30 12:41 | 56.59388 | 11.56041 | 36468 ft | 418 kts | 4° |
| 2026-04-30 12:42 | 56.65187 | 11.56921 | 36458 ft | 418 kts | 4° |
| 2026-04-30 12:42 | 56.70986 | 11.57802 | 36459 ft | 418 kts | 4° |
| 2026-04-30 12:43 | 56.76784 | 11.58687 | 36453 ft | 418 kts | 4° |
| 2026-04-30 12:43 | 56.82543 | 11.59568 | 36457 ft | 418 kts | 4° |
| 2026-04-30 12:44 | 56.88338 | 11.60458 | 36456 ft | 418 kts | 4° |
| 2026-04-30 12:44 | 56.94130 | 11.61350 | 36450 ft | 418 kts | 4° |
| 2026-04-30 12:45 | 56.99920 | 11.62244 | 36460 ft | 417 kts | 4° |
| 2026-04-30 12:45 | 57.05705 | 11.63140 | 36445 ft | 417 kts | 4° |
| 2026-04-30 12:46 | 57.11445 | 11.64032 | 36458 ft | 417 kts | 4° |
| 2026-04-30 12:46 | 57.17230 | 11.64588 | 36454 ft | 416 kts | 359° |
| 2026-04-30 12:47 | 57.23019 | 11.64533 | 36439 ft | 416 kts | 358° |
| 2026-04-30 12:47 | 57.28810 | 11.64432 | 36456 ft | 416 kts | 359° |
| 2026-04-30 12:48 | 57.34604 | 11.64385 | 36458 ft | 416 kts | 359° |
| 2026-04-30 12:48 | 57.40366 | 11.64372 | 36460 ft | 417 kts | 359° |
| 2026-04-30 12:49 | 57.46168 | 11.64367 | 36456 ft | 417 kts | 359° |
| 2026-04-30 12:49 | 57.51981 | 11.64363 | 36446 ft | 418 kts | 359° |
| 2026-04-30 12:50 | 57.56826 | 11.64358 | 36465 ft | 422 kts | 359° |
| 2026-04-30 12:50 | 57.63715 | 11.64351 | 36459 ft | 429 kts | 359° |
| 2026-04-30 12:51 | 57.69701 | 11.64346 | 36457 ft | 431 kts | 359° |
| 2026-04-30 12:51 | 57.75695 | 11.64340 | 36453 ft | 431 kts | 359° |
| 2026-04-30 12:52 | 57.80681 | 11.64336 | 36451 ft | 431 kts | 359° |
| 2026-04-30 12:52 | 57.86668 | 11.64330 | 36447 ft | 430 kts | 359° |
| 2026-04-30 12:53 | 57.92637 | 11.64325 | 36452 ft | 428 kts | 359° |
| 2026-04-30 12:53 | 57.99581 | 11.64317 | 36452 ft | 432 kts | 359° |
| 2026-04-30 12:54 | 58.04583 | 11.64313 | 36438 ft | 431 kts | 359° |
| 2026-04-30 12:54 | 58.11491 | 11.64307 | 36422 ft | 424 kts | 359° |
| 2026-04-30 12:55 | 58.17371 | 11.64276 | 36420 ft | 422 kts | 357° |
| 2026-04-30 12:55 | 58.22196 | 11.63177 | 36432 ft | 419 kts | 350° |
| 2026-04-30 12:56 | 58.27944 | 11.61273 | 36431 ft | 419 kts | 349° |
| 2026-04-30 12:56 | 58.33701 | 11.59393 | 36396 ft | 421 kts | 350° |
| 2026-04-30 12:57 | 58.37584 | 11.58166 | 35950 ft | 431 kts | 350° |
| 2026-04-30 12:57 | 58.39583 | 11.57541 | 35670 ft | 432 kts | 350° |
| 2026-04-30 12:57 | 58.42543 | 11.56621 | 35255 ft | 429 kts | 350° |
| 2026-04-30 12:57 | 58.45441 | 11.55721 | 34850 ft | 426 kts | 350° |
| 2026-04-30 12:58 | 58.48358 | 11.54813 | 34455 ft | 426 kts | 350° |
| 2026-04-30 12:58 | 58.51286 | 11.53899 | 34010 ft | 426 kts | 350° |
| 2026-04-30 12:58 | 58.54214 | 11.52984 | 33552 ft | 427 kts | 349° |
| 2026-04-30 12:58 | 58.57142 | 11.52066 | 33120 ft | 426 kts | 349° |
| 2026-04-30 12:59 | 58.60070 | 11.51146 | 32715 ft | 426 kts | 349° |
| 2026-04-30 12:59 | 58.62996 | 11.50226 | 32292 ft | 427 kts | 349° |
| 2026-04-30 12:59 | 58.65892 | 11.49314 | 31877 ft | 427 kts | 349° |
| 2026-04-30 12:59 | 58.68827 | 11.48387 | 31474 ft | 428 kts | 349° |
| 2026-04-30 13:00 | 58.71775 | 11.47454 | 31054 ft | 430 kts | 349° |
| 2026-04-30 13:00 | 58.74725 | 11.46517 | 30638 ft | 430 kts | 349° |
| 2026-04-30 13:00 | 58.77680 | 11.45578 | 30171 ft | 431 kts | 349° |
| 2026-04-30 13:00 | 58.80646 | 11.44633 | 29716 ft | 433 kts | 349° |
| 2026-04-30 13:01 | 58.83642 | 11.43676 | 29256 ft | 439 kts | 349° |
| 2026-04-30 13:01 | 58.86668 | 11.42708 | 28815 ft | 442 kts | 349° |
| 2026-04-30 13:01 | 58.89704 | 11.41736 | 28347 ft | 442 kts | 349° |
| 2026-04-30 13:01 | 58.92742 | 11.40762 | 27881 ft | 443 kts | 349° |
| 2026-04-30 13:02 | 58.95743 | 11.39798 | 27450 ft | 443 kts | 349° |
| 2026-04-30 13:02 | 58.98778 | 11.38821 | 26974 ft | 443 kts | 349° |
| 2026-04-30 13:02 | 59.01831 | 11.37836 | 26523 ft | 444 kts | 349° |
| 2026-04-30 13:02 | 59.04859 | 11.36858 | 26060 ft | 438 kts | 349° |
| 2026-04-30 13:03 | 59.07849 | 11.35891 | 25621 ft | 434 kts | 349° |
| 2026-04-30 13:03 | 59.10816 | 11.34923 | 25188 ft | 431 kts | 349° |
| 2026-04-30 13:03 | 59.13741 | 11.33724 | 24732 ft | 429 kts | 346° |
| 2026-04-30 13:03 | 59.16632 | 11.32359 | 24289 ft | 427 kts | 345° |
| 2026-04-30 13:04 | 59.19505 | 11.31334 | 23806 ft | 426 kts | 356° |
| 2026-04-30 13:04 | 59.22459 | 11.31387 | 23341 ft | 424 kts | 1° |
| 2026-04-30 13:04 | 59.25395 | 11.31660 | 22876 ft | 421 kts | 2° |
| 2026-04-30 13:04 | 59.28310 | 11.31968 | 22438 ft | 418 kts | 2° |
| 2026-04-30 13:05 | 59.31204 | 11.32259 | 22009 ft | 414 kts | 1° |
| 2026-04-30 13:05 | 59.34050 | 11.32519 | 21575 ft | 405 kts | 1° |
| 2026-04-30 13:05 | 59.36853 | 11.32749 | 21156 ft | 403 kts | 1° |
| 2026-04-30 13:06 | 59.42450 | 11.33161 | 20335 ft | 406 kts | 1° |
| 2026-04-30 13:06 | 59.45258 | 11.33357 | 19891 ft | 402 kts | 1° |
| 2026-04-30 13:06 | 59.48046 | 11.33550 | 19475 ft | 398 kts | 1° |
| 2026-04-30 13:06 | 59.50788 | 11.33740 | 19062 ft | 392 kts | 1° |
| 2026-04-30 13:07 | 59.53489 | 11.33928 | 18656 ft | 384 kts | 1° |
| 2026-04-30 13:07 | 59.56136 | 11.34113 | 18206 ft | 377 kts | 1° |
| 2026-04-30 13:07 | 59.58735 | 11.34295 | 17794 ft | 370 kts | 1° |
| 2026-04-30 13:07 | 59.61289 | 11.34474 | 17413 ft | 364 kts | 1° |
| 2026-04-30 13:08 | 59.63796 | 11.34650 | 17016 ft | 358 kts | 1° |
| 2026-04-30 13:08 | 59.66232 | 11.34820 | 16637 ft | 352 kts | 1° |
| 2026-04-30 13:08 | 59.68665 | 11.34990 | 16276 ft | 347 kts | 1° |
| 2026-04-30 13:08 | 59.71064 | 11.35159 | 15908 ft | 343 kts | 1° |
| 2026-04-30 13:09 | 59.73434 | 11.35326 | 15529 ft | 339 kts | 1° |
| 2026-04-30 13:09 | 59.75778 | 11.35492 | 15183 ft | 335 kts | 1° |
| 2026-04-30 13:09 | 59.78093 | 11.35656 | 14836 ft | 331 kts | 1° |
| 2026-04-30 13:09 | 59.80388 | 11.35819 | 14481 ft | 328 kts | 1° |
| 2026-04-30 13:10 | 59.82656 | 11.35979 | 14140 ft | 325 kts | 1° |
| 2026-04-30 13:10 | 59.84881 | 11.36135 | 13759 ft | 323 kts | 1° |
| 2026-04-30 13:10 | 59.87113 | 11.36294 | 13390 ft | 319 kts | 0° |
| 2026-04-30 13:10 | 59.89323 | 11.36452 | 13043 ft | 316 kts | 0° |
| 2026-04-30 13:11 | 59.91508 | 11.36609 | 12700 ft | 313 kts | 0° |
| 2026-04-30 13:11 | 59.93674 | 11.36763 | 12365 ft | 310 kts | 0° |
| 2026-04-30 13:11 | 59.95822 | 11.36916 | 12032 ft | 308 kts | 0° |
| 2026-04-30 13:11 | 59.97954 | 11.37068 | 11706 ft | 305 kts | 360° |
| 2026-04-30 13:12 | 60.00068 | 11.37221 | 11372 ft | 303 kts | 360° |
| 2026-04-30 13:12 | 60.02140 | 11.37370 | 11039 ft | 301 kts | 360° |
| 2026-04-30 13:12 | 60.04219 | 11.37521 | 10713 ft | 298 kts | 360° |
| 2026-04-30 13:13 | 60.08225 | 11.37811 | 10542 ft | 277 kts | 359° |
| 2026-04-30 13:13 | 60.10124 | 11.37949 | 10276 ft | 274 kts | 359° |
| 2026-04-30 13:13 | 60.13981 | 11.38221 | 9410 ft | 280 kts | 359° |
| 2026-04-30 13:14 | 60.15925 | 11.38360 | 9058 ft | 280 kts | 359° |
| 2026-04-30 13:14 | 60.17867 | 11.38502 | 8742 ft | 279 kts | 359° |
| 2026-04-30 13:14 | 60.21701 | 11.38781 | 8071 ft | 279 kts | 359° |
| 2026-04-30 13:15 | 60.23636 | 11.38921 | 7767 ft | 277 kts | 359° |
| 2026-04-30 13:15 | 60.27563 | 11.39203 | 6845 ft | 287 kts | 359° |
| 2026-04-30 13:15 | 60.29568 | 11.39348 | 6469 ft | 288 kts | 359° |
| 2026-04-30 13:16 | 60.31565 | 11.39490 | 6119 ft | 286 kts | 359° |
| 2026-04-30 13:16 | 60.33545 | 11.39639 | 5834 ft | 283 kts | 359° |
| 2026-04-30 13:16 | 60.35434 | 11.39783 | 6009 ft | 258 kts | 359° |
| 2026-04-30 13:17 | 60.38796 | 11.39846 | 5744 ft | 228 kts | 344° |
| 2026-04-30 13:17 | 60.40103 | 11.38369 | 5657 ft | 209 kts | 312° |
| 2026-04-30 13:17 | 60.41143 | 11.33335 | 5259 ft | 193 kts | 271° |
| 2026-04-30 13:18 | 60.40954 | 11.30683 | 5011 ft | 190 kts | 256° |
| 2026-04-30 13:18 | 60.40287 | 11.25539 | 4605 ft | 185 kts | 248° |
| 2026-04-30 13:18 | 60.39467 | 11.23624 | 4375 ft | 182 kts | 211° |
| 2026-04-30 13:19 | 60.38303 | 11.22718 | 4186 ft | 181 kts | 198° |
| 2026-04-30 13:19 | 60.37094 | 11.22047 | 3982 ft | 179 kts | 198° |
| 2026-04-30 13:19 | 60.35906 | 11.21364 | 3824 ft | 177 kts | 197° |
| 2026-04-30 13:19 | 60.34741 | 11.20722 | 3683 ft | 173 kts | 198° |
| 2026-04-30 13:20 | 60.33577 | 11.20037 | 3435 ft | 178 kts | 197° |
| 2026-04-30 13:20 | 60.32396 | 11.19329 | 3244 ft | 176 kts | 197° |
| 2026-04-30 13:20 | 60.31206 | 11.18650 | 3001 ft | 176 kts | 197° |
| 2026-04-30 13:20 | 60.30032 | 11.17979 | 2747 ft | 169 kts | 198° |
| 2026-04-30 13:21 | 60.28944 | 11.17347 | 2558 ft | 155 kts | 198° |
| 2026-04-30 13:21 | 60.27936 | 11.16765 | 2316 ft | 145 kts | 198° |
| 2026-04-30 13:21 | 60.26981 | 11.16210 | 2138 ft | 143 kts | 197° |
| 2026-04-30 13:22 | 60.25117 | 11.15131 | 1737 ft | 135 kts | 196° |
| 2026-04-30 13:22 | 60.24180 | 11.14591 | 1581 ft | 143 kts | 198° |
| 2026-04-30 13:22 | 60.22289 | 11.13496 | 1190 ft | 135 kts | 196° |
| 2026-04-30 13:23 | 60.21356 | 11.12956 | 1031 ft | 147 kts | 195° |
| 2026-04-30 13:23 | 60.19446 | 11.11859 | 689 ft | 139 kts | 196° |
| 2026-04-30 13:24 | 60.18396 | 11.11253 | 682 ft | 37 kts | 196° |
| 2026-04-30 13:24 | 60.18097 | 11.11024 | 681 ft | 17 kts | 216° |
| 2026-04-30 13:25 | 60.18067 | 11.10614 | 679 ft | 14 kts | 286° |
| 2026-04-30 13:25 | 60.18227 | 11.10594 | 675 ft | 14 kts | 16° |
| 2026-04-30 13:26 | 60.18653 | 11.10840 | 682 ft | 23 kts | 17° |
| 2026-04-30 13:26 | 60.18953 | 11.11014 | 680 ft | 22 kts | 16° |
| 2026-04-30 13:27 | 60.19185 | 11.10991 | 682 ft | 18 kts | 286° |
| 2026-04-30 13:28 | 60.19270 | 11.10832 | 682 ft | 0 kts | 339° |